Time;durP1;ratioP1;P1;durP2;ratioP2;P2;SDS_P1;SDS_P2;PMS_P1;PMS_P2;Temp;Humidity;BMP_temperature;BMP_pressure;BME280_temperature;BME280_humidity;BME280_pressure;Samples;Min_cycle;Max_cycle;Signal;HPM_P1;HPM_P2
2022/03/04 00:00:05;;;;;;;91.63;51.80;;;;;;;2.74;69.65;94088.88;1546271;90;21536;-54
2022/03/04 00:02:34;;;;;;;137.07;65.55;;;;;;;2.79;69.28;94092.48;1547684;92;21130;-55
2022/03/04 00:05:01;;;;;;;119.08;63.42;;;;;;;2.77;68.70;94090.77;1522871;92;21585;-55
2022/03/04 00:07:30;;;;;;;112.70;63.30;;;;;;;2.65;68.93;94090.77;1521927;93;21094;-55
2022/03/04 00:09:57;;;;;;;118.93;67.58;;;;;;;2.50;68.97;94084.02;1526590;92;21139;-55
2022/03/04 00:12:24;;;;;;;138.28;76.62;;;;;;;2.41;69.64;94081.66;1525085;93;21467;-57
2022/03/04 00:14:52;;;;;;;135.65;75.25;;;;;;;2.38;69.54;94088.69;1525464;92;21071;-55
2022/03/04 00:17:20;;;;;;;130.18;69.62;;;;;;;2.40;69.87;94084.19;1529727;93;21110;-57
2022/03/04 00:19:47;;;;;;;133.05;73.05;;;;;;;2.45;69.58;94082.36;1524473;92;21215;-58
2022/03/04 00:22:15;;;;;;;133.47;77.67;;;;;;;2.48;70.02;94086.98;1525750;92;21063;-56
2022/03/04 00:24:42;;;;;;;128.53;71.57;;;;;;;2.59;70.00;94094.36;1527036;92;21131;-56
2022/03/04 00:27:10;;;;;;;136.45;74.82;;;;;;;2.70;69.64;94084.11;1529068;92;21141;-55
2022/03/04 00:29:37;;;;;;;151.20;76.75;;;;;;;2.72;69.04;94089.28;1522756;92;21131;-55
2022/03/04 00:32:06;;;;;;;141.82;80.53;;;;;;;2.64;68.99;94082.45;1524598;92;21055;-55
2022/03/04 00:34:34;;;;;;;136.10;76.90;;;;;;;2.55;69.08;94090.36;1522514;92;21132;-54
2022/03/04 00:37:01;;;;;;;123.67;68.95;;;;;;;2.53;69.79;94083.80;1523063;93;21527;-54
2022/03/04 00:39:28;;;;;;;106.60;56.13;;;;;;;2.61;69.83;94079.78;1521861;92;21591;-55
2022/03/04 00:41:55;;;;;;;97.82;55.73;;;;;;;2.70;69.33;94074.61;1523260;92;21551;-55
2022/03/04 00:44:23;;;;;;;111.97;56.23;;;;;;;2.62;69.11;94077.24;1522112;92;21530;-54
2022/03/04 00:46:50;;;;;;;108.27;54.67;;;;;;;2.55;69.15;94078.72;1521893;92;21139;-55
2022/03/04 00:49:17;;;;;;;97.15;51.65;;;;;;;2.45;69.31;94072.86;1522010;92;21138;-54
2022/03/04 00:51:45;;;;;;;107.27;54.73;;;;;;;2.37;69.41;94076.30;1522017;92;21090;-54
2022/03/04 00:54:13;;;;;;;103.55;51.75;;;;;;;2.31;69.77;94074.45;1533120;92;21004;-54
2022/03/04 00:56:40;;;;;;;91.82;50.25;;;;;;;2.29;69.90;94074.11;1548098;91;21186;-55
2022/03/04 00:59:08;;;;;;;96.17;51.28;;;;;;;2.36;70.30;94080.16;1528684;92;21138;-56
2022/03/04 01:01:35;;;;;;;104.55;51.98;;;;;;;2.45;69.89;94076.93;1546692;91;21198;-58
2022/03/04 01:04:03;;;;;;;101.62;54.65;;;;;;;2.45;69.92;94075.57;1528855;92;21757;-55
2022/03/04 01:06:30;;;;;;;99.42;53.50;;;;;;;2.50;69.88;94072.41;1539488;92;21169;-56
2022/03/04 01:08:57;;;;;;;87.20;50.55;;;;;;;2.49;69.59;94072.98;1547014;92;21050;-56
2022/03/04 01:11:25;;;;;;;96.85;55.98;;;;;;;2.46;69.65;94073.03;1547210;92;21042;-55
2022/03/04 01:13:54;;;;;;;82.25;50.25;;;;;;;2.43;69.80;94065.14;1547783;91;21436;-54
2022/03/04 01:16:22;;;;;;;75.37;45.35;;;;;;;2.37;69.90;94066.80;1546723;90;21050;-55
2022/03/04 01:18:49;;;;;;;85.05;47.95;;;;;;;2.39;70.51;94067.73;1545564;92;21170;-55
2022/03/04 01:21:16;;;;;;;91.02;51.23;;;;;;;2.50;70.48;94057.48;1546884;91;21471;-56
2022/03/04 01:23:43;;;;;;;90.10;51.18;;;;;;;2.58;69.79;94055.59;1546730;90;21122;-54
2022/03/04 01:26:10;;;;;;;109.00;59.30;;;;;;;2.47;69.39;94061.78;1546655;92;21346;-54
2022/03/04 01:28:38;;;;;;;103.17;57.27;;;;;;;2.35;69.87;94061.59;1546368;92;21107;-55
2022/03/04 01:31:05;;;;;;;87.53;49.50;;;;;;;2.39;70.41;94056.87;1542718;91;21082;-56
2022/03/04 01:33:32;;;;;;;131.65;70.87;;;;;;;2.49;70.22;94049.92;1546777;92;21075;-55
2022/03/04 01:35:59;;;;;;;101.47;57.33;;;;;;;2.50;69.87;94058.23;1525705;92;21110;-54
2022/03/04 01:38:27;;;;;;;107.87;59.85;;;;;;;2.44;69.87;94060.47;1522271;92;21641;-55
2022/03/04 01:40:54;;;;;;;88.05;49.15;;;;;;;2.41;70.15;94054.52;1522644;92;21040;-55
2022/03/04 01:43:21;;;;;;;77.70;44.38;;;;;;;2.40;70.03;94053.77;1522458;92;21117;-54
2022/03/04 01:45:48;;;;;;;60.12;36.15;;;;;;;2.36;69.83;94058.45;1522375;92;21197;-58
2022/03/04 01:48:16;;;;;;;60.50;34.88;;;;;;;2.36;70.27;94055.73;1523461;92;21138;-55
2022/03/04 01:50:43;;;;;;;51.02;32.30;;;;;;;2.42;69.99;94049.27;1522153;92;21299;-55
2022/03/04 01:53:10;;;;;;;52.35;32.15;;;;;;;2.37;69.86;94055.16;1524534;92;22554;-56
2022/03/04 01:55:37;;;;;;;54.42;34.35;;;;;;;2.31;70.21;94055.46;1500458;93;21184;-56
2022/03/04 01:58:05;;;;;;;83.78;49.35;;;;;;;2.38;70.60;94056.13;1502010;93;21039;-58
2022/03/04 02:00:33;;;;;;;59.03;36.88;;;;;;;2.50;70.06;94049.34;1501102;94;21685;-56
2022/03/04 02:03:00;;;;;;;57.00;36.23;;;;;;;2.46;69.78;94054.03;1501427;93;21522;-56
2022/03/04 02:05:27;;;;;;;53.42;35.23;;;;;;;2.41;70.34;94058.58;1517103;92;21054;-55
2022/03/04 02:07:55;;;;;;;51.85;34.40;;;;;;;2.52;70.43;94055.87;1529264;92;21058;-56
2022/03/04 02:10:23;;;;;;;52.78;33.38;;;;;;;2.65;70.03;94061.51;1522408;93;21602;-53
2022/03/04 02:12:50;;;;;;;56.25;35.28;;;;;;;2.72;69.43;94062.73;1525141;92;21124;-55
2022/03/04 02:15:17;;;;;;;47.17;30.40;;;;;;;2.67;69.57;94060.50;1523022;92;21793;-55
2022/03/04 02:17:44;;;;;;;48.60;29.80;;;;;;;2.69;69.38;94063.56;1522318;92;21060;-57
2022/03/04 02:20:11;;;;;;;58.02;34.08;;;;;;;2.65;69.14;94066.33;1524011;92;21067;-54
2022/03/04 02:22:38;;;;;;;50.67;30.35;;;;;;;2.57;69.25;94069.58;1527801;92;21070;-55
2022/03/04 02:25:06;;;;;;;56.53;31.70;;;;;;;2.49;69.33;94063.48;1523746;93;21590;-54
2022/03/04 02:27:33;;;;;;;108.22;51.30;;;;;;;2.41;69.76;94061.30;1519801;93;21178;-55
2022/03/04 02:30:01;;;;;;;79.95;42.05;;;;;;;2.44;70.10;94059.89;1523308;92;21059;-56
2022/03/04 02:32:28;;;;;;;70.65;36.98;;;;;;;2.56;69.98;94061.25;1525638;92;21123;-55
2022/03/04 02:34:55;;;;;;;98.58;47.40;;;;;;;2.59;69.43;94061.78;1523730;92;21016;-57
2022/03/04 02:37:23;;;;;;;130.37;62.98;;;;;;;2.49;69.44;94070.27;1522510;92;21138;-54
2022/03/04 02:39:51;;;;;;;95.75;47.88;;;;;;;2.46;69.41;94073.81;1522150;92;21899;-57
2022/03/04 02:42:18;;;;;;;58.73;34.35;;;;;;;2.44;69.42;94071.33;1524002;92;21031;-54
2022/03/04 02:44:45;;;;;;;56.05;31.00;;;;;;;2.37;69.46;94067.38;1516537;94;21586;-55
2022/03/04 02:47:13;;;;;;;62.25;36.88;;;;;;;2.39;69.98;94063.08;1524017;92;21114;-55
2022/03/04 02:49:40;;;;;;;61.73;34.55;;;;;;;2.44;69.53;94059.11;1533430;92;21055;-57
2022/03/04 02:52:07;;;;;;;60.60;36.30;;;;;;;2.40;69.74;94064.62;1521568;93;21718;-56
2022/03/04 02:54:34;;;;;;;59.25;34.40;;;;;;;2.46;69.97;94073.03;1541474;91;21040;-54
2022/03/04 02:57:03;;;;;;;54.73;34.23;;;;;;;2.52;69.49;94062.66;1546978;89;21087;-54
2022/03/04 02:59:30;;;;;;;66.28;37.70;;;;;;;2.48;69.54;94073.42;1547917;90;21168;-55
2022/03/04 03:01:57;;;;;;;59.05;37.42;;;;;;;2.44;69.56;94065.89;1548603;92;21051;-55
2022/03/04 03:04:25;;;;;;;59.50;37.67;;;;;;;2.35;69.41;94077.88;1527519;91;22338;-54
2022/03/04 03:06:54;;;;;;;62.35;39.73;;;;;;;2.27;69.71;94071.00;1519457;94;21087;-53
2022/03/04 03:09:21;;;;;;;61.58;39.65;;;;;;;2.22;69.70;94080.40;1519705;93;21075;-56
2022/03/04 03:11:48;;;;;;;65.15;42.55;;;;;;;2.21;69.92;94079.44;1521305;93;21082;-60
2022/03/04 03:14:17;;;;;;;71.72;43.92;;;;;;;2.30;70.56;94081.06;1521656;93;21035;-54
2022/03/04 03:16:44;;;;;;;64.82;39.98;;;;;;;2.47;70.44;94082.73;1522938;92;21271;-56
2022/03/04 03:19:12;;;;;;;63.05;40.80;;;;;;;2.63;70.04;94081.49;1521461;92;21084;-56
2022/03/04 03:21:39;;;;;;;72.47;45.67;;;;;;;2.75;69.62;94083.05;1522404;93;21150;-54
2022/03/04 03:24:06;;;;;;;75.40;46.95;;;;;;;2.85;69.37;94088.88;1519423;93;21089;-54
2022/03/04 03:26:34;;;;;;;75.67;44.83;;;;;;;2.97;68.89;94091.59;1520664;92;21067;-54
2022/03/04 03:29:01;;;;;;;90.00;52.75;;;;;;;3.02;68.28;94087.81;1522045;92;21121;-57
2022/03/04 03:31:28;;;;;;;86.90;53.02;;;;;;;2.84;67.94;94087.34;1523589;93;21071;-54
2022/03/04 03:33:55;;;;;;;87.40;51.48;;;;;;;2.65;68.16;94098.16;1522277;92;21167;-55
2022/03/04 03:36:22;;;;;;;92.50;49.23;;;;;;;2.51;68.70;94097.02;1523238;92;21531;-55
2022/03/04 03:38:49;;;;;;;84.05;48.73;;;;;;;2.43;69.07;94096.93;1523233;93;21505;-54
2022/03/04 03:41:17;;;;;;;81.25;48.52;;;;;;;2.41;69.19;94089.80;1523029;92;21463;-55
2022/03/04 03:43:44;;;;;;;96.32;54.67;;;;;;;2.30;69.31;94093.27;1522058;92;22260;-57
2022/03/04 03:46:11;;;;;;;93.50;53.98;;;;;;;2.20;69.60;94096.89;1522402;92;21134;-55
2022/03/04 03:48:40;;;;;;;109.50;61.88;;;;;;;2.09;69.92;94095.70;1522768;92;21104;-56
2022/03/04 03:51:08;;;;;;;131.65;74.82;;;;;;;2.00;70.44;94094.66;1523218;92;21625;-56
2022/03/04 03:53:35;;;;;;;115.55;67.58;;;;;;;2.01;70.72;94098.91;1525872;92;21153;-56
2022/03/04 03:56:02;;;;;;;104.30;58.78;;;;;;;2.01;70.84;94090.77;1546856;92;20992;-55
2022/03/04 03:58:29;;;;;;;81.37;49.25;;;;;;;2.01;70.87;94093.48;1529057;92;21141;-55
2022/03/04 04:00:59;;;;;;;83.75;49.58;;;;;;;2.04;71.52;94083.17;1521606;92;21220;-55
2022/03/04 04:03:26;;;;;;;73.55;46.28;;;;;;;2.19;71.75;94077.73;1533247;92;21087;-55
2022/03/04 04:05:53;;;;;;;73.05;44.98;;;;;;;2.30;70.93;94085.89;1547352;92;21610;-56
2022/03/04 04:08:20;;;;;;;78.55;47.53;;;;;;;2.27;70.49;94085.35;1547179;92;21039;-55
2022/03/04 04:10:47;;;;;;;81.72;47.95;;;;;;;2.22;70.99;94080.97;1538902;91;21498;-56
2022/03/04 04:13:15;;;;;;;95.72;54.48;;;;;;;2.28;70.64;94077.39;1546763;92;22297;-54
2022/03/04 04:15:42;;;;;;;77.32;43.78;;;;;;;2.30;70.37;94087.84;1545666;90;21150;-54
2022/03/04 04:18:09;;;;;;;80.45;48.23;;;;;;;2.24;70.23;94089.47;1547339;91;22393;-56
2022/03/04 04:20:36;;;;;;;70.85;41.90;;;;;;;2.15;70.31;94090.58;1533828;92;21535;-56
2022/03/04 04:23:03;;;;;;;61.25;38.60;;;;;;;2.07;70.37;94088.55;1548049;91;21243;-57
2022/03/04 04:25:30;;;;;;;62.25;38.42;;;;;;;1.99;70.60;94087.70;1546526;92;21227;-54
2022/03/04 04:27:58;;;;;;;61.80;37.95;;;;;;;1.96;70.86;94091.23;1547049;91;21090;-53
2022/03/04 04:30:26;;;;;;;68.72;39.10;;;;;;;1.95;71.05;94097.84;1529597;92;21569;-57
2022/03/04 04:32:54;;;;;;;57.93;39.00;;;;;;;2.01;71.51;94093.48;1519612;94;20996;-55
2022/03/04 04:35:21;;;;;;;62.73;38.42;;;;;;;2.08;71.11;94098.23;1518494;92;21564;-56
2022/03/04 04:37:48;;;;;;;78.22;44.27;;;;;;;2.04;71.00;94096.73;1514379;92;21091;-56
2022/03/04 04:40:15;;;;;;;88.65;51.15;;;;;;;2.05;71.44;94096.91;1521801;92;21110;-57
2022/03/04 04:42:42;;;;;;;105.35;57.78;;;;;;;2.14;71.26;94089.05;1522053;93;21768;-54
2022/03/04 04:45:10;;;;;;;90.05;48.58;;;;;;;2.18;71.06;94100.61;1523446;93;21039;-57
2022/03/04 04:47:37;;;;;;;82.62;46.02;;;;;;;2.18;70.73;94095.19;1523384;92;21586;-55
2022/03/04 04:50:05;;;;;;;97.50;51.65;;;;;;;2.15;70.58;94097.36;1521152;92;21164;-55
2022/03/04 04:52:32;;;;;;;115.97;58.65;;;;;;;2.18;71.06;94103.32;1522636;92;21071;-58
2022/03/04 04:55:00;;;;;;;120.95;61.70;;;;;;;2.24;70.88;94095.67;1541287;92;21637;-57
2022/03/04 04:57:27;;;;;;;100.47;52.08;;;;;;;2.32;70.35;94097.70;1547486;92;21025;-54
2022/03/04 04:59:54;;;;;;;93.67;49.08;;;;;;;2.28;69.94;94101.03;1545813;92;21499;-57
2022/03/04 05:02:22;;;;;;;91.72;48.38;;;;;;;2.18;69.92;94101.97;1532700;91;21135;-55
2022/03/04 05:04:50;;;;;;;88.33;49.48;;;;;;;2.08;70.03;94091.45;1546495;92;21128;-56
2022/03/04 05:07:17;;;;;;;91.53;50.50;;;;;;;2.08;70.58;94097.45;1545953;91;21118;-56
2022/03/04 05:09:44;;;;;;;84.37;47.80;;;;;;;2.12;70.27;94105.72;1546823;91;21445;-54
2022/03/04 05:12:12;;;;;;;78.20;43.60;;;;;;;2.15;70.50;94099.47;1546673;90;21083;-54
2022/03/04 05:14:39;;;;;;;69.82;39.63;;;;;;;2.19;70.03;94097.50;1546897;92;21023;-53
2022/03/04 05:17:06;;;;;;;56.18;35.63;;;;;;;2.19;70.02;94107.00;1548105;92;21054;-53
2022/03/04 05:19:33;;;;;;;71.02;39.63;;;;;;;2.21;69.91;94107.35;1545264;92;21528;-54
2022/03/04 05:22:01;;;;;;;67.97;40.92;;;;;;;2.22;70.00;94108.10;1546569;92;21585;-52
2022/03/04 05:24:28;;;;;;;74.35;42.75;;;;;;;2.27;69.98;94108.99;1547345;92;21123;-51
2022/03/04 05:26:55;;;;;;;89.80;48.80;;;;;;;2.33;69.79;94117.63;1547926;92;21114;-52
2022/03/04 05:29:23;;;;;;;89.22;49.88;;;;;;;2.37;69.82;94116.22;1548029;92;21198;-54
2022/03/04 05:31:50;;;;;;;79.42;43.42;;;;;;;2.44;69.66;94122.89;1544097;92;21188;-52
2022/03/04 05:34:17;;;;;;;97.17;54.30;;;;;;;2.44;69.44;94120.96;1533817;92;21118;-54
2022/03/04 05:36:45;;;;;;;97.12;54.33;;;;;;;2.34;69.34;94123.83;1520806;94;21217;-53
2022/03/04 05:39:12;;;;;;;84.40;47.38;;;;;;;2.35;69.49;94129.44;1521405;92;21049;-52
2022/03/04 05:41:39;;;;;;;81.85;49.67;;;;;;;2.31;69.37;94128.12;1521165;92;21647;-53
2022/03/04 05:44:07;;;;;;;76.82;47.73;;;;;;;2.35;69.75;94130.19;1523116;92;21253;-53
2022/03/04 05:46:34;;;;;;;76.95;43.60;;;;;;;2.50;69.26;94134.23;1522906;92;21086;-54
2022/03/04 05:49:02;;;;;;;66.92;37.38;;;;;;;2.53;68.88;94135.38;1521846;92;21629;-52
2022/03/04 05:51:30;;;;;;;60.60;35.50;;;;;;;2.48;68.48;94129.81;1521744;92;21048;-51
2022/03/04 05:53:57;;;;;;;51.90;32.42;;;;;;;2.47;68.61;94128.88;1522159;93;21520;-53
2022/03/04 05:56:24;;;;;;;50.20;31.17;;;;;;;2.49;68.04;94137.38;1522776;92;21326;-52
2022/03/04 05:58:52;;;;;;;48.92;31.85;;;;;;;2.45;68.35;94128.50;1523144;92;21151;-50
2022/03/04 06:01:19;;;;;;;46.48;30.68;;;;;;;2.52;68.09;94137.91;1522376;92;21019;-53
2022/03/04 06:03:46;;;;;;;51.30;31.85;;;;;;;2.61;67.56;94139.51;1534408;91;21658;-52
2022/03/04 06:06:13;;;;;;;53.75;33.35;;;;;;;2.64;67.75;94144.89;1536628;92;21651;-52
2022/03/04 06:08:40;;;;;;;49.88;30.32;;;;;;;2.79;67.54;94150.86;1522412;93;21297;-52
2022/03/04 06:11:08;;;;;;;55.92;36.15;;;;;;;2.84;66.72;94141.66;1523417;92;21055;-52
2022/03/04 06:13:37;;;;;;;59.25;35.43;;;;;;;2.74;66.36;94147.27;1522769;92;21345;-50
2022/03/04 06:16:05;;;;;;;53.00;34.10;;;;;;;2.69;66.45;94148.48;1521123;92;21067;-52
2022/03/04 06:18:32;;;;;;;43.42;27.70;;;;;;;2.75;66.59;94156.95;1520465;92;21066;-51
2022/03/04 06:20:59;;;;;;;59.48;36.28;;;;;;;2.77;66.06;94155.94;1522790;92;21653;-53
2022/03/04 06:23:26;;;;;;;71.10;42.98;;;;;;;2.73;66.22;94156.59;1528706;92;21068;-56
2022/03/04 06:25:55;;;;;;;130.15;66.33;;;;;;;2.85;66.21;94154.66;1518223;94;21143;-53
2022/03/04 06:28:24;;;;;;;72.82;43.70;;;;;;;2.99;65.92;94157.13;1522138;92;21173;-52
2022/03/04 06:30:52;;;;;;;80.50;49.93;;;;;;;3.19;65.57;94156.60;1520938;92;22599;-52
2022/03/04 06:33:32;;;;;;;68.50;42.43;;;;;;;3.36;65.24;94159.61;1515378;93;21601;-53
2022/03/04 06:36:03;;;;;;;65.28;42.35;;;;;;;3.54;64.78;94160.84;1519611;93;21091;-52
2022/03/04 06:38:32;;;;;;;52.27;34.30;;;;;;;3.75;64.13;94168.59;1534340;91;21098;-51
2022/03/04 06:41:00;;;;;;;70.03;42.88;;;;;;;3.93;63.28;94175.25;1510933;92;21218;-52
2022/03/04 06:43:27;;;;;;;63.02;39.23;;;;;;;4.07;62.57;94174.19;1538560;92;21103;-53
2022/03/04 06:45:54;;;;;;;58.15;40.67;;;;;;;4.14;62.04;94174.04;1542343;91;21216;-53
2022/03/04 06:48:26;;;;;;;64.92;43.02;;;;;;;4.18;62.02;94176.87;1543350;90;21122;-53
2022/03/04 06:50:53;;;;;;;68.65;45.20;;;;;;;4.26;61.97;94178.85;1513393;93;21096;-57
2022/03/04 06:53:21;;;;;;;66.12;43.00;;;;;;;4.29;61.94;94182.88;1529757;91;21155;-52
2022/03/04 06:55:49;;;;;;;53.87;35.48;;;;;;;4.36;61.85;94181.93;1526075;92;21104;-52
2022/03/04 06:58:17;;;;;;;53.60;35.95;;;;;;;4.38;61.31;94185.03;1523016;92;21297;-55
2022/03/04 07:00:44;;;;;;;55.58;37.78;;;;;;;4.19;61.24;94178.40;1521624;91;21102;-54
2022/03/04 07:03:12;;;;;;;56.75;36.65;;;;;;;4.00;61.54;94186.55;1540590;89;21062;-54
2022/03/04 07:05:40;;;;;;;61.42;39.45;;;;;;;3.84;61.81;94181.06;1533171;91;21151;-55
2022/03/04 07:08:11;;;;;;;70.10;43.08;;;;;;;3.68;62.14;94183.09;1524114;92;21534;-53
2022/03/04 07:10:39;;;;;;;71.12;44.20;;;;;;;3.61;62.45;94187.31;1530254;91;21259;-51
2022/03/04 07:13:08;;;;;;;58.60;37.38;;;;;;;3.66;62.79;94180.63;1543525;90;21094;-57
2022/03/04 07:15:38;;;;;;;59.40;39.38;;;;;;;3.78;62.29;94186.22;1528211;91;21044;-57
2022/03/04 07:18:06;;;;;;;58.40;38.10;;;;;;;3.78;62.18;94193.02;1537354;90;21051;-58
2022/03/04 07:20:35;;;;;;;58.85;39.35;;;;;;;3.78;61.94;94194.38;1536767;91;21952;-59
2022/03/04 07:23:02;;;;;;;57.75;36.73;;;;;;;3.73;61.98;94185.31;1548450;90;21848;-60
2022/03/04 07:25:30;;;;;;;51.08;33.40;;;;;;;3.75;61.98;94189.78;1537682;91;21165;-57
2022/03/04 07:27:57;;;;;;;44.50;29.27;;;;;;;3.81;61.67;94190.03;1532032;92;21137;-61
2022/03/04 07:30:24;;;;;;;43.50;27.35;;;;;;;3.76;61.55;94194.03;1533450;91;22021;-57
2022/03/04 07:32:52;;;;;;;59.25;35.75;;;;;;;3.79;61.18;94191.05;1537792;90;21042;-61
2022/03/04 07:35:19;;;;;;;59.03;36.28;;;;;;;3.85;61.33;94192.87;1524096;92;21228;-58
2022/03/04 07:37:46;;;;;;;49.98;31.07;;;;;;;4.01;60.91;94192.95;1522906;92;21105;-55
2022/03/04 07:40:16;;;;;;;58.17;36.58;;;;;;;4.04;60.20;94197.55;1525695;91;21283;-57
2022/03/04 07:42:43;;;;;;;59.55;34.88;;;;;;;3.95;60.12;94202.02;1527162;92;21123;-55
2022/03/04 07:45:12;;;;;;;48.73;31.80;;;;;;;3.88;60.16;94201.55;1522555;92;21124;-56
2022/03/04 07:47:41;;;;;;;63.30;36.98;;;;;;;3.79;60.29;94199.99;1539689;92;22134;-54
2022/03/04 07:50:13;;;;;;;51.73;34.38;;;;;;;3.73;60.44;94203.61;1532633;92;21118;-53
2022/03/04 07:52:40;;;;;;;45.73;29.23;;;;;;;3.72;60.40;94202.83;1527154;92;21188;-60
2022/03/04 07:55:11;;;;;;;45.48;27.62;;;;;;;3.70;60.38;94203.84;1491424;92;21169;-59
2022/03/04 07:57:38;;;;;;;39.95;25.20;;;;;;;3.69;60.45;94206.98;1528116;91;21531;-59
2022/03/04 08:00:12;;;;;;;38.55;24.75;;;;;;;3.65;60.38;94205.69;1533249;90;21958;-58
2022/03/04 08:02:40;;;;;;;56.53;33.83;;;;;;;3.56;60.36;94212.27;1525459;91;21145;-57
2022/03/04 08:05:09;;;;;;;47.88;31.37;;;;;;;3.50;60.65;94203.64;1534916;91;21106;-59
2022/03/04 08:07:37;;;;;;;43.00;26.23;;;;;;;3.61;60.66;94208.28;1522793;92;21517;-58
2022/03/04 08:10:07;;;;;;;43.60;28.07;;;;;;;3.76;60.15;94208.99;1534879;90;22155;-57
2022/03/04 08:12:34;;;;;;;49.18;29.30;;;;;;;3.79;60.03;94210.88;1537111;91;21125;-55
2022/03/04 08:15:01;;;;;;;43.70;26.65;;;;;;;3.89;60.10;94211.25;1532410;91;21034;-57
2022/03/04 08:17:30;;;;;;;47.55;28.55;;;;;;;3.99;59.80;94204.85;1529245;90;21082;-54
2022/03/04 08:19:58;;;;;;;56.75;32.03;;;;;;;3.94;59.49;94203.20;1518823;92;21716;-60
2022/03/04 08:22:28;;;;;;;46.70;28.35;;;;;;;3.84;59.67;94209.02;1537534;91;21124;-58
2022/03/04 08:24:56;;;;;;;39.98;26.60;;;;;;;3.90;59.54;94207.95;1516053;92;21267;-58
2022/03/04 08:27:23;;;;;;;41.08;24.95;;;;;;;3.99;59.46;94210.88;1539109;91;21470;-57
2022/03/04 08:29:58;;;;;;;49.75;31.90;;;;;;;4.09;59.40;94210.66;1535628;91;21175;-54
2022/03/04 08:32:26;;;;;;;47.93;29.75;;;;;;;4.17;59.11;94206.64;1504058;92;21090;-57
2022/03/04 08:34:53;;;;;;;45.50;30.00;;;;;;;4.16;59.28;94207.83;1544610;90;21093;-55
2022/03/04 08:37:20;;;;;;;46.33;30.40;;;;;;;4.20;59.21;94207.16;1524812;92;22053;-58
2022/03/04 08:39:47;;;;;;;64.17;39.90;;;;;;;4.25;58.92;94212.10;1532803;91;21165;-57
2022/03/04 08:42:15;;;;;;;62.13;39.08;;;;;;;4.26;58.51;94201.38;1526007;92;21134;-57
2022/03/04 08:44:43;;;;;;;67.95;44.03;;;;;;;4.19;58.41;94211.64;1531021;91;21122;-56
2022/03/04 08:47:10;;;;;;;71.95;44.42;;;;;;;4.08;58.87;94203.69;1527110;91;21104;-57
2022/03/04 08:49:38;;;;;;;77.45;48.78;;;;;;;4.10;58.72;94209.51;1538428;92;21209;-57
2022/03/04 08:52:06;;;;;;;79.37;49.55;;;;;;;4.02;58.64;94212.78;1527079;92;21622;-59
2022/03/04 08:54:34;;;;;;;70.28;45.48;;;;;;;3.92;59.07;94202.28;1523284;91;21144;-57
2022/03/04 08:57:01;;;;;;;63.60;39.95;;;;;;;3.93;59.07;94213.34;1543948;91;21256;-57
2022/03/04 08:59:28;;;;;;;60.03;36.65;;;;;;;3.84;58.93;94210.38;1538496;90;21425;-57
2022/03/04 09:01:56;;;;;;;57.10;37.60;;;;;;;3.74;59.15;94205.14;1534922;90;21518;-58
2022/03/04 09:04:24;;;;;;;58.48;37.93;;;;;;;3.71;59.95;94217.61;1547328;91;21130;-57
2022/03/04 09:06:51;;;;;;;55.60;36.30;;;;;;;3.80;59.39;94209.69;1529372;91;21507;-59
2022/03/04 09:09:18;;;;;;;65.45;40.48;;;;;;;3.79;59.10;94214.95;1528262;92;21162;-54
2022/03/04 09:11:46;;;;;;;65.30;41.50;;;;;;;3.70;59.13;94216.08;1532959;91;21615;-53
2022/03/04 09:14:16;;;;;;;66.77;40.38;;;;;;;3.60;59.02;94214.91;1539627;92;21051;-59
2022/03/04 09:16:43;;;;;;;57.60;36.60;;;;;;;3.51;59.37;94213.33;1525190;92;21047;-57
2022/03/04 09:19:10;;;;;;;49.10;34.25;;;;;;;3.52;59.38;94224.38;1527009;91;21098;-57
2022/03/04 09:21:37;;;;;;;49.10;34.38;;;;;;;3.45;59.27;94219.66;1523357;90;21123;-56
2022/03/04 09:24:06;;;;;;;47.20;31.73;;;;;;;3.46;59.03;94220.58;1520881;92;21128;-60
2022/03/04 09:26:34;;;;;;;44.38;29.45;;;;;;;3.55;58.61;94219.47;1503667;92;22516;-57
2022/03/04 09:29:01;;;;;;;43.63;29.20;;;;;;;3.62;58.14;94214.67;1518971;92;21536;-58
2022/03/04 09:31:29;;;;;;;50.92;32.80;;;;;;;3.74;58.12;94225.54;1480837;94;21217;-59
2022/03/04 09:33:57;;;;;;;52.98;35.03;;;;;;;3.80;57.66;94219.78;1533909;90;21470;-56
2022/03/04 09:36:24;;;;;;;47.27;31.80;;;;;;;3.89;57.13;94227.58;1522376;91;21052;-57
2022/03/04 09:38:51;;;;;;;39.38;25.70;;;;;;;3.87;57.29;94224.50;1522641;92;21171;-55
2022/03/04 09:41:19;;;;;;;42.35;30.37;;;;;;;3.86;57.34;94225.69;1526844;92;21844;-57
2022/03/04 09:43:46;;;;;;;46.68;30.72;;;;;;;3.76;57.05;94220.45;1526798;91;21239;-58
2022/03/04 09:46:13;;;;;;;48.63;31.40;;;;;;;3.67;57.44;94220.98;1517432;92;21516;-59
2022/03/04 09:48:44;;;;;;;44.23;28.80;;;;;;;3.61;57.65;94226.73;1518136;91;21875;-59
2022/03/04 09:51:11;;;;;;;42.90;27.37;;;;;;;3.62;57.68;94218.76;1516304;93;21160;-56
2022/03/04 09:53:39;;;;;;;43.45;29.18;;;;;;;3.66;57.75;94224.90;1530453;91;21534;-60
2022/03/04 09:56:08;;;;;;;48.78;32.35;;;;;;;3.69;57.39;94222.70;1548527;90;21102;-60
2022/03/04 09:58:37;;;;;;;46.02;29.23;;;;;;;3.69;57.35;94221.95;1547064;90;21313;-57
2022/03/04 10:01:14;;;;;;;49.30;28.80;;;;;;;3.77;57.55;94226.84;1545194;90;21093;-56
2022/03/04 10:03:46;;;;;;;45.92;26.52;;;;;;;3.87;56.87;94225.87;1531444;90;21285;-58
2022/03/04 10:06:14;;;;;;;36.98;24.37;;;;;;;4.01;55.06;94222.89;1520926;92;21166;-60
2022/03/04 10:08:50;;;;;;;40.17;25.97;;;;;;;4.03;54.59;94220.52;1534028;90;21205;-58
2022/03/04 10:11:31;;;;;;;32.73;21.25;;;;;;;4.02;54.54;94223.06;1525485;92;21171;-57
2022/03/04 10:14:07;;;;;;;30.62;19.82;;;;;;;4.02;53.85;94218.23;1525579;91;21267;-59
2022/03/04 10:16:37;;;;;;;33.83;23.52;;;;;;;4.04;52.97;94221.30;1533128;91;21272;-65
2022/03/04 10:19:20;;;;;;;33.83;22.05;;;;;;;4.02;53.48;94223.67;1547146;91;21669;-59
2022/03/04 10:22:03;;;;;;;28.02;18.35;;;;;;;4.04;53.92;94220.69;1536806;90;21192;-58
2022/03/04 10:24:37;;;;;;;24.60;17.75;;;;;;;4.08;53.26;94227.44;1536027;90;21151;-57
2022/03/04 10:27:14;;;;;;;27.70;18.75;;;;;;;4.05;52.87;94220.86;1537120;91;21113;-61
2022/03/04 10:29:50;;;;;;;23.60;15.50;;;;;;;4.11;52.36;94223.29;1532821;90;21799;-56
2022/03/04 10:32:19;;;;;;;22.27;15.58;;;;;;;4.16;52.10;94228.23;1523710;91;21080;-59
2022/03/04 10:34:56;;;;;;;24.50;17.37;;;;;;;4.15;51.87;94223.20;1527292;90;21150;-58
2022/03/04 10:37:54;;;;;;;22.80;16.55;;;;;;;4.11;51.84;94227.38;1522193;92;21000;-60
2022/03/04 10:40:22;;;;;;;24.90;17.87;;;;;;;4.08;51.85;94232.27;1528950;91;21171;-58
2022/03/04 10:43:05;;;;;;;35.83;20.48;;;;;;;4.05;51.84;94225.55;1526916;92;21502;-61
2022/03/04 10:45:44;;;;;;;32.23;19.80;;;;;;;4.01;50.77;94228.33;1483434;94;22715;-56
2022/03/04 10:48:17;;;;;;;26.10;18.65;;;;;;;3.93;50.65;94224.22;1487621;94;21501;-59
2022/03/04 10:50:51;;;;;;;31.12;22.15;;;;;;;3.78;50.83;94222.94;1520274;92;21094;-61
2022/03/04 10:53:24;;;;;;;34.58;23.18;;;;;;;3.72;51.07;94223.22;1527714;92;20935;-64
2022/03/04 10:55:55;;;;;;;33.83;20.00;;;;;;;3.80;51.62;94223.29;1527572;92;21842;-60
2022/03/04 10:58:28;;;;;;;35.68;22.20;;;;;;;3.91;51.20;94223.84;1521565;92;21045;-58
2022/03/04 11:00:59;;;;;;;31.07;19.90;;;;;;;3.92;51.92;94219.97;1493182;93;21124;-58
2022/03/04 11:03:29;;;;;;;35.65;20.57;;;;;;;4.04;51.92;94224.77;1516715;92;21073;-58
2022/03/04 11:06:05;;;;;;;27.20;19.00;;;;;;;4.05;52.09;94224.94;1534428;91;21165;-55
2022/03/04 11:08:32;;;;;;;28.70;19.20;;;;;;;4.04;51.96;94232.18;1527504;91;21143;-64
2022/03/04 11:11:01;;;;;;;31.27;21.40;;;;;;;3.97;52.49;94224.91;1543378;90;21171;-59
2022/03/04 11:13:34;;;;;;;30.92;20.08;;;;;;;3.89;53.04;94222.74;1537336;91;21102;-59
2022/03/04 11:16:03;;;;;;;30.20;18.90;;;;;;;3.82;53.53;94225.00;1524026;91;21984;-57
2022/03/04 11:18:30;;;;;;;30.45;21.17;;;;;;;3.76;53.67;94225.31;1532707;90;21106;-57
2022/03/04 11:20:59;;;;;;;32.93;21.73;;;;;;;3.61;54.13;94225.38;1538714;90;21158;-64
2022/03/04 11:23:29;;;;;;;32.65;21.90;;;;;;;3.48;54.80;94231.84;1534939;90;21041;-59
2022/03/04 11:26:10;;;;;;;29.82;19.65;;;;;;;3.31;55.22;94236.98;1536721;90;21207;-56
2022/03/04 11:28:41;;;;;;;40.03;23.60;;;;;;;3.13;55.97;94238.42;1529081;91;21130;-62